Impacts METAR Board
IDs:

KDFW - Dallas-Ft Worth Intl, TX, US

Updated at: 1300 UTC 23 Jun 2018
Potential Impact None Slight Moderate High
Time 23/01Z 23/02Z 23/03Z 23/04Z 23/05Z 23/06Z 23/07Z 23/08Z 23/09Z 23/10Z 23/11Z 23/12Z 23/13Z
Temp98 96 93 91 89 88 86 84 80 79 78 79 79
Dewpt65 63 65 71 72 72 73 73 68 67 66 68 69
Altim29.67 29.67 29.69 29.71 29.72 29.71 29.72 29.77 29.80 29.81 29.79 29.80 29.84
VIS10 10 10 10 10 10 10 10 10 10 10 10 10
CIG-- -- -- -- -- -- -- -- -- 38 210 40 18
CoverFEWFEWFEWFEWFEWFEWFEWFEWSCTOVCBKNOVCOVC
FltCatVFRVFRVFRVFRVFRVFRVFRVFRVFRVFRVFRVFRMVFR
WX-------------------------RA
WDir19018018018018018018014020609010030
WSpd9 10 10 13 15 14 14 3 17 14 9 5 6
WGst-- -- -- 22 -- -- -- -- 23 18 -- -- --
Raw hourly METARs
KDFW 230053Z 19009KT 10SM FEW075 37/18 A2967 RMK AO2 SLP037 T03670183
KDFW 230153Z 18010KT 10SM FEW250 36/17 A2967 RMK AO2 SLP036 T03560172
KDFW 230253Z 18010KT 10SM FEW250 34/18 A2969 RMK AO2 SLP041 T03390183 55001
KDFW 230353Z 18013G22KT 10SM FEW250 33/22 A2971 RMK AO2 SLP051 T03280217
KDFW 230453Z 18015KT 10SM FEW250 32/22 A2972 RMK AO2 SLP052 T03170222
KDFW 230553Z 18014KT 10SM FEW250 31/22 A2971 RMK AO2 SLP049 T03110222 10378 20306 403830267 50008
KDFW 230653Z 18014KT 10SM FEW250 30/23 A2972 RMK AO2 SLP052 T03000228
KDFW 230753Z 14003KT 10SM FEW080 FEW250 29/23 A2977 RMK AO2 SLP072 T02890228
KDFW 230853Z 02017G23KT 10SM FEW041 SCT090 SCT250 27/20 A2980 RMK AO2 SLP080 T02670200 53030
KDFW 230953Z 06014G18KT 10SM SCT029 OVC038 26/19 A2981 RMK AO2 SLP083 T02610194
KDFW 231053Z 09009KT 10SM FEW034 SCT065 BKN210 26/19 A2979 RMK AO2 SLP077 T02560189
KDFW 231153Z 10005KT 10SM SCT026 SCT032 BKN040 OVC220 26/20 A2980 RMK AO2 SLP079 T02610200 10311 20250 58000
KDFW 231253Z 03006KT 10SM -RA OVC018 26/21 A2984 RMK AO2 RAB35 SLP094 P0000 T02610206



Page loaded:  13:55 UTC  |   06:55 AM Pacific  |   07:55 AM Mountain  |   08:55 AM Central  |   09:55 AM Eastern

 

ADVISORIES

FORECASTS

FORECASTS

OBSERVATIONS

USER TOOLS

ABOUT US